createdAt,value
2022-09-07T00:01:03.648Z,18.45
2022-09-07T00:03:30.319Z,19.27
2022-09-07T00:05:57.686Z,20.20
2022-09-07T00:08:27.264Z,21.23
2022-09-07T00:11:02.284Z,20.67
2022-09-07T00:13:32.076Z,17.23
2022-09-07T00:16:03.626Z,18.27
2022-09-07T00:18:31.463Z,18.05
2022-09-07T00:20:59.908Z,21.92
2022-09-07T00:23:27.325Z,21.95
2022-09-07T00:25:54.291Z,17.88
2022-09-07T00:28:20.955Z,18.58
2022-09-07T00:30:47.575Z,18.95
2022-09-07T00:33:14.151Z,18.05
2022-09-07T00:35:41.455Z,17.70
2022-09-07T00:38:08.815Z,17.48
2022-09-07T00:40:35.875Z,19.70
2022-09-07T00:43:02.555Z,20.98
2022-09-07T00:45:29.364Z,19.63
2022-09-07T00:48:13.709Z,17.35
2022-09-07T00:50:46.322Z,20.88
2022-09-07T00:53:19.616Z,20.25
2022-09-07T00:55:49.441Z,18.77
2022-09-07T00:58:17.603Z,26.08
2022-09-07T01:00:46.568Z,21.75
2022-09-07T01:03:16.627Z,20.90
2022-09-07T01:05:48.343Z,24.15
2022-09-07T01:08:15.315Z,24.25
2022-09-07T01:10:41.960Z,22.77
2022-09-07T01:13:08.662Z,21.83
2022-09-07T01:15:44.183Z,21.63
2022-09-07T01:18:29.325Z,20.88
2022-09-07T01:24:25.421Z,26.53
2022-09-07T01:27:07.278Z,24.13
2022-09-07T01:29:46.358Z,20.00
2022-09-07T01:32:36.300Z,22.88
2022-09-07T01:35:12.112Z,20.58
2022-09-07T01:37:47.025Z,24.05
2022-09-07T01:40:19.267Z,23.10
2022-09-07T01:43:02.475Z,21.23
2022-09-07T01:45:35.802Z,20.20
2022-09-07T01:48:07.385Z,23.02
2022-09-07T01:50:49.652Z,20.58
2022-09-07T01:53:24.841Z,21.63
2022-09-07T01:56:06.498Z,23.15
2022-09-07T01:58:46.254Z,17.30
2022-09-07T02:01:16.451Z,18.10
2022-09-07T02:03:54.165Z,25.48
2022-09-07T02:06:26.852Z,23.73
2022-09-07T02:08:58.542Z,20.23
2022-09-07T02:11:42.265Z,19.25
2022-09-07T02:14:36.976Z,21.05
2022-09-07T02:17:25.204Z,20.35
2022-09-07T02:20:00.217Z,21.33
2022-09-07T02:22:31.983Z,22.00
2022-09-07T02:25:02.645Z,20.25
2022-09-07T02:27:41.211Z,22.98
2022-09-07T02:30:08.404Z,18.38
2022-09-07T02:32:35.058Z,20.92
2022-09-07T02:35:02.554Z,19.30
2022-09-07T02:37:29.649Z,18.98
2022-09-07T02:39:56.269Z,19.83
2022-09-07T02:42:23.178Z,21.77
2022-09-07T02:44:49.883Z,22.48
2022-09-07T02:47:25.599Z,22.90
2022-09-07T02:50:20.972Z,20.35
2022-09-07T02:53:06.480Z,22.17
2022-09-07T02:55:44.946Z,25.02
2022-09-07T02:58:23.422Z,31.23
2022-09-07T03:01:29.980Z,22.75
2022-09-07T03:04:20.489Z,20.85
2022-09-07T03:06:57.645Z,20.10
2022-09-07T03:09:30.500Z,23.20
2022-09-07T03:11:57.567Z,22.17
2022-09-07T03:14:26.188Z,19.27
2022-09-07T03:16:56.588Z,18.83
2022-09-07T03:19:23.240Z,20.95
2022-09-07T03:21:49.850Z,22.73
2022-09-07T03:24:16.566Z,21.00
2022-09-07T03:26:46.607Z,27.95
2022-09-07T03:29:13.400Z,23.98
2022-09-07T03:31:40.069Z,21.42
2022-09-07T03:34:07.341Z,21.35
2022-09-07T03:36:34.730Z,23.30
2022-09-07T03:39:01.637Z,21.67
2022-09-07T03:41:28.880Z,19.58
2022-09-07T03:43:55.672Z,22.63
2022-09-07T03:46:22.847Z,21.20
2022-09-07T03:48:50.478Z,21.50
2022-09-07T03:51:18.400Z,16.20
2022-09-07T03:53:46.651Z,20.90
2022-09-07T03:56:16.251Z,20.48
2022-09-07T03:58:42.847Z,21.85
2022-09-07T04:01:13.431Z,19.02
2022-09-07T04:03:40.196Z,20.90
2022-09-07T04:06:07.092Z,19.75
2022-09-07T04:08:35.464Z,22.77
2022-09-07T04:11:03.918Z,20.40
2022-09-07T04:13:31.255Z,21.13
2022-09-07T04:15:58.291Z,18.13
2022-09-07T04:18:25.079Z,23.73
2022-09-07T04:20:52.102Z,21.95
2022-09-07T04:23:19.380Z,18.38
2022-09-07T04:25:49.980Z,23.67
2022-09-07T04:28:18.535Z,20.17
2022-09-07T04:30:45.547Z,27.50
2022-09-07T04:33:13.339Z,23.15
2022-09-07T04:35:41.501Z,24.42
2022-09-07T04:38:12.495Z,22.25
2022-09-07T04:40:39.183Z,18.52
2022-09-07T04:43:07.345Z,18.13
2022-09-07T04:45:39.699Z,21.55
2022-09-07T04:48:06.527Z,19.35
2022-09-07T04:50:33.769Z,18.55
2022-09-07T04:53:00.444Z,16.48
2022-09-07T04:55:27.915Z,17.48
2022-09-07T04:57:54.551Z,17.52
2022-09-07T05:00:21.160Z,21.80
2022-09-07T05:02:47.815Z,22.17
2022-09-07T05:05:14.764Z,21.00
2022-09-07T05:07:41.489Z,19.80
2022-09-07T05:10:08.429Z,20.67
2022-09-07T05:12:35.238Z,17.88
2022-09-07T05:15:01.862Z,19.10
2022-09-07T05:17:31.092Z,17.65
2022-09-07T05:19:58.537Z,22.17
2022-09-07T05:22:25.429Z,22.75
2022-09-07T05:24:52.020Z,18.17
2022-09-07T05:27:18.598Z,22.50
2022-09-07T05:30:01.103Z,25.00
2022-09-07T05:32:28.138Z,19.77
2022-09-07T05:34:54.753Z,17.85
2022-09-07T05:37:21.424Z,21.02
2022-09-07T05:39:48.279Z,16.27
2022-09-07T05:42:15.028Z,15.20
2022-09-07T05:47:09.175Z,24.73
2022-09-07T05:49:35.958Z,20.42
2022-09-07T05:52:02.787Z,19.92
2022-09-07T05:54:29.410Z,21.85
2022-09-07T05:56:56.038Z,20.25
2022-09-07T05:59:22.674Z,21.80
2022-09-07T06:01:49.391Z,19.45
2022-09-07T06:04:16.219Z,17.90
2022-09-07T06:06:54.632Z,21.00
2022-09-07T06:09:31.514Z,15.70
2022-09-07T06:11:58.175Z,16.52
2022-09-07T06:14:25.157Z,12.15
2022-09-07T06:16:51.880Z,13.88
2022-09-07T06:19:18.533Z,13.23
2022-09-07T06:21:45.122Z,12.43
2022-09-07T06:24:11.718Z,13.07
2022-09-07T06:26:38.363Z,12.30
2022-09-07T06:29:05.007Z,10.65
2022-09-07T06:31:31.972Z,11.73
2022-09-07T06:33:58.904Z,13.82
2022-09-07T06:36:27.857Z,10.40
2022-09-07T06:38:56.012Z,11.00
2022-09-07T06:44:12.623Z,12.13
2022-09-07T06:49:26.167Z,9.13
2022-09-07T06:51:52.972Z,12.45
2022-09-07T06:57:09.308Z,12.13
2022-09-07T06:59:37.403Z,9.10
2022-09-07T07:02:07.915Z,12.38
2022-09-07T07:04:39.754Z,15.45
2022-09-07T07:07:11.055Z,15.65
2022-09-07T07:09:38.270Z,9.98
2022-09-07T07:12:04.931Z,11.15
2022-09-07T07:14:34.393Z,11.73
2022-09-07T07:17:01.649Z,10.18
2022-09-07T07:19:28.608Z,13.50
2022-09-07T07:22:14.283Z,13.55
2022-09-07T07:24:41.839Z,11.30
2022-09-07T07:27:08.467Z,11.30
2022-09-07T07:29:35.111Z,13.57
2022-09-07T07:32:01.992Z,10.20
2022-09-07T07:34:28.725Z,16.05
2022-09-07T07:36:55.290Z,10.30
2022-09-07T07:42:09.280Z,12.60
2022-09-07T07:44:35.850Z,16.08
2022-09-07T07:47:02.883Z,12.80
2022-09-07T07:49:29.499Z,14.43
2022-09-07T07:54:43.678Z,13.20
2022-09-07T07:57:10.465Z,12.80
2022-09-07T07:59:37.307Z,11.45
2022-09-07T08:02:06.096Z,14.10
2022-09-07T08:04:36.243Z,12.50
2022-09-07T08:07:09.608Z,12.63
2022-09-07T08:09:40.899Z,14.20
2022-09-07T08:12:09.081Z,15.15
2022-09-07T08:14:41.959Z,10.18
2022-09-07T08:17:14.345Z,12.38
2022-09-07T08:19:41.540Z,10.25
2022-09-07T08:22:09.808Z,21.35
2022-09-07T08:24:36.440Z,12.68
2022-09-07T08:27:04.021Z,11.23
2022-09-07T08:29:34.653Z,10.82
2022-09-07T08:32:03.708Z,17.55
2022-09-07T08:34:30.287Z,13.60
2022-09-07T08:36:56.842Z,12.00
2022-09-07T08:39:23.359Z,9.93
2022-09-07T08:42:19.360Z,17.75
2022-09-07T08:44:51.105Z,13.13
2022-09-07T08:47:35.355Z,12.80
2022-09-07T08:50:10.064Z,14.73
2022-09-07T08:52:50.098Z,9.48
2022-09-07T08:55:20.446Z,10.18
2022-09-07T08:58:14.540Z,10.32
2022-09-07T09:01:30.684Z,10.50
2022-09-07T09:06:49.796Z,11.13
2022-09-07T09:09:50.478Z,13.98
2022-09-07T09:12:37.483Z,10.43
2022-09-07T09:15:23.349Z,7.97
2022-09-07T09:18:05.224Z,10.07
2022-09-07T09:20:53.882Z,11.07
2022-09-07T09:23:36.879Z,7.25
2022-09-07T09:26:13.759Z,10.07
2022-09-07T09:28:40.544Z,6.97
2022-09-07T09:31:17.005Z,10.60
2022-09-07T09:33:43.829Z,12.07
2022-09-07T09:36:25.948Z,6.50
2022-09-07T09:38:52.565Z,8.68
2022-09-07T09:41:19.250Z,8.75
2022-09-07T09:43:51.833Z,11.50
2022-09-07T09:46:24.373Z,9.18
2022-09-07T09:49:14.091Z,7.07
2022-09-07T09:54:43.525Z,6.60
2022-09-07T09:57:16.850Z,9.45
2022-09-07T10:00:01.958Z,12.88
2022-09-07T10:05:33.453Z,6.82
2022-09-07T10:08:00.246Z,6.78
2022-09-07T10:10:28.614Z,7.47
2022-09-07T10:12:56.344Z,10.60
2022-09-07T10:15:40.917Z,7.25
2022-09-07T10:18:18.809Z,5.78
2022-09-07T10:20:45.504Z,8.05
2022-09-07T10:23:27.569Z,6.28
2022-09-07T10:25:54.118Z,9.95
2022-09-07T10:28:23.724Z,9.18
2022-09-07T10:31:12.325Z,10.95
2022-09-07T10:36:51.527Z,8.00
2022-09-07T10:39:23.625Z,6.38
2022-09-07T10:42:09.968Z,13.35
2022-09-07T10:44:51.946Z,7.53
2022-09-07T10:47:46.922Z,6.85
2022-09-07T10:52:56.836Z,6.50
2022-09-07T10:55:54.959Z,6.25
2022-09-07T11:01:34.980Z,6.75
2022-09-07T11:04:20.365Z,5.95
2022-09-07T11:06:55.100Z,12.00
2022-09-07T11:09:50.930Z,9.02
2022-09-07T11:12:28.062Z,7.32
2022-09-07T11:15:13.045Z,12.80
2022-09-07T11:20:58.954Z,8.18
2022-09-07T11:23:41.499Z,7.57
2022-09-07T11:26:29.066Z,6.15
2022-09-07T11:29:31.390Z,11.32
2022-09-07T11:32:04.690Z,10.70
2022-09-07T11:34:39.009Z,8.20
2022-09-07T11:40:05.095Z,6.65
2022-09-07T11:42:43.554Z,8.57
2022-09-07T11:45:19.320Z,9.38
2022-09-07T11:48:10.976Z,10.05
2022-09-07T11:50:46.281Z,9.70
2022-09-07T11:53:18.368Z,10.38
2022-09-07T11:55:49.640Z,7.00
2022-09-07T11:58:53.745Z,8.60
2022-09-07T12:02:00.355Z,10.10
2022-09-07T12:04:40.064Z,7.20
2022-09-07T12:07:37.136Z,9.10
2022-09-07T12:11:00.063Z,9.40
2022-09-07T12:13:39.315Z,18.45
2022-09-07T12:16:37.733Z,6.50
2022-09-07T12:19:21.362Z,7.38
2022-09-07T12:21:53.741Z,9.65
2022-09-07T12:24:53.495Z,10.13
2022-09-07T12:27:19.967Z,9.15
2022-09-07T12:30:10.943Z,10.40
2022-09-07T12:32:57.489Z,17.27
2022-09-07T12:35:45.322Z,11.88
2022-09-07T12:38:17.735Z,12.55
2022-09-07T12:41:03.808Z,7.53
2022-09-07T12:43:51.762Z,7.35
2022-09-07T12:46:38.536Z,8.05
2022-09-07T12:49:29.364Z,7.53
2022-09-07T12:52:14.912Z,9.18
2022-09-07T12:55:23.660Z,6.85
2022-09-07T12:57:59.035Z,8.15
2022-09-07T13:00:54.971Z,8.82
2022-09-07T13:09:37.517Z,7.78
2022-09-07T13:15:11.025Z,9.35
2022-09-07T13:17:54.803Z,9.63
2022-09-07T13:20:30.082Z,9.68
2022-09-07T13:23:08.265Z,10.05
2022-09-07T13:25:37.587Z,6.70
2022-09-07T13:28:13.969Z,8.40
2022-09-07T13:30:46.045Z,9.68
2022-09-07T13:33:25.060Z,7.15
2022-09-07T13:35:54.609Z,10.27
2022-09-07T13:38:21.843Z,9.07
2022-09-07T13:40:52.167Z,9.93
2022-09-07T13:43:23.585Z,14.70
2022-09-07T13:45:53.415Z,11.73
2022-09-07T13:48:38.437Z,6.80
2022-09-07T13:51:22.005Z,10.98
2022-09-07T13:54:15.297Z,7.15
2022-09-07T13:57:02.315Z,10.20
2022-09-07T13:59:33.483Z,6.47
2022-09-07T14:02:00.471Z,8.38
2022-09-07T14:04:51.343Z,8.52
2022-09-07T14:07:23.745Z,6.97
2022-09-07T14:10:04.252Z,6.85
2022-09-07T14:12:31.275Z,13.13
2022-09-07T14:15:18.803Z,11.18
2022-09-07T14:17:46.375Z,8.98
2022-09-07T14:20:17.712Z,11.15
2022-09-07T14:22:45.998Z,8.82
2022-09-07T14:25:22.816Z,9.23
2022-09-07T14:27:49.832Z,11.30
2022-09-07T14:30:29.467Z,9.95
2022-09-07T14:33:06.020Z,7.18
2022-09-07T14:35:34.737Z,10.35
2022-09-07T14:38:11.572Z,10.05
2022-09-07T14:40:38.305Z,9.95
2022-09-07T14:43:32.308Z,9.07
2022-09-07T14:46:17.824Z,7.90
2022-09-07T14:48:46.985Z,9.75
2022-09-07T14:51:35.051Z,8.15
2022-09-07T14:54:07.564Z,8.57
2022-09-07T14:56:39.404Z,8.18
2022-09-07T14:59:38.922Z,8.70
2022-09-07T15:02:14.744Z,9.05
2022-09-07T15:04:41.402Z,8.10
2022-09-07T15:07:39.736Z,8.00
2022-09-07T15:10:25.688Z,8.88
2022-09-07T15:12:55.244Z,11.38
2022-09-07T15:15:26.764Z,13.65
2022-09-07T15:18:03.205Z,13.05
2022-09-07T15:20:44.025Z,10.65
2022-09-07T15:23:10.574Z,9.95
2022-09-07T15:25:37.379Z,10.38
2022-09-07T15:28:04.958Z,9.93
2022-09-07T15:30:33.396Z,16.20
2022-09-07T15:33:00.114Z,10.50
2022-09-07T15:35:26.990Z,7.65
2022-09-07T15:38:01.872Z,10.70
2022-09-07T15:40:36.433Z,9.35
2022-09-07T15:43:13.649Z,9.48
2022-09-07T15:45:51.289Z,6.53
2022-09-07T15:48:21.677Z,6.28
2022-09-07T15:50:49.025Z,9.45
2022-09-07T15:56:03.825Z,8.13
2022-09-07T15:58:30.653Z,9.95
2022-09-07T16:03:54.589Z,10.73
2022-09-07T16:06:22.786Z,8.88
2022-09-07T16:08:51.502Z,11.10
2022-09-07T16:11:23.902Z,8.77
2022-09-07T16:14:01.831Z,8.38
2022-09-07T16:19:20.483Z,11.63
2022-09-07T16:21:47.641Z,11.25
2022-09-07T16:24:14.216Z,15.30
2022-09-07T16:26:40.810Z,8.77
2022-09-07T16:29:07.867Z,11.63
2022-09-07T16:31:35.031Z,13.00
2022-09-07T16:34:03.315Z,9.13
2022-09-07T16:36:30.683Z,16.58
2022-09-07T16:39:00.460Z,13.18
2022-09-07T16:41:31.870Z,14.77
2022-09-07T16:43:58.986Z,12.90
2022-09-07T16:46:28.931Z,13.60
2022-09-07T16:48:55.557Z,13.07
2022-09-07T16:51:23.677Z,13.93
2022-09-07T16:53:53.187Z,12.88
2022-09-07T16:56:23.609Z,10.90
2022-09-07T16:59:00.123Z,10.43
2022-09-07T17:01:29.400Z,16.98
2022-09-07T17:03:56.454Z,15.45
2022-09-07T17:06:25.070Z,13.48
2022-09-07T17:08:52.470Z,9.52
2022-09-07T17:11:21.506Z,10.75
2022-09-07T17:13:48.480Z,16.17
2022-09-07T17:16:27.376Z,11.48
2022-09-07T17:21:41.872Z,12.30
2022-09-07T17:24:10.524Z,13.20
2022-09-07T17:26:37.752Z,15.35
2022-09-07T17:29:04.354Z,12.23
2022-09-07T17:34:20.213Z,11.55
2022-09-07T17:36:47.132Z,14.20
2022-09-07T17:39:16.428Z,15.80
2022-09-07T17:41:43.835Z,11.07
2022-09-07T17:44:10.802Z,10.88
2022-09-07T17:46:37.658Z,12.73
2022-09-07T17:49:04.441Z,10.65
2022-09-07T17:51:32.312Z,8.75
2022-09-07T17:54:02.670Z,10.20
2022-09-07T17:56:31.100Z,11.55
2022-09-07T18:01:45.992Z,27.05
2022-09-07T18:04:13.242Z,13.05
2022-09-07T18:06:41.089Z,10.32
2022-09-07T18:09:08.110Z,12.93
2022-09-07T18:11:50.894Z,12.23
2022-09-07T18:14:18.931Z,14.63
2022-09-07T18:16:47.705Z,11.98
2022-09-07T18:19:14.564Z,12.05
2022-09-07T18:21:43.113Z,13.93
2022-09-07T18:24:19.720Z,16.95
2022-09-07T18:26:51.742Z,13.68
2022-09-07T18:29:30.174Z,15.32
2022-09-07T18:31:58.949Z,13.65
2022-09-07T18:34:26.364Z,13.20
2022-09-07T18:36:52.907Z,11.65
2022-09-07T18:39:19.428Z,14.23
2022-09-07T18:41:46.058Z,10.52
2022-09-07T18:46:59.204Z,14.65
2022-09-07T18:49:25.962Z,21.45
2022-09-07T18:54:41.319Z,13.13
2022-09-07T18:57:08.309Z,20.23
2022-09-07T18:59:34.890Z,17.02
2022-09-07T19:02:05.034Z,13.43
2022-09-07T19:07:20.935Z,13.65
2022-09-07T19:09:48.346Z,13.57
2022-09-07T19:12:15.214Z,12.95
2022-09-07T19:14:42.290Z,14.52
2022-09-07T19:17:11.057Z,16.83
2022-09-07T19:19:39.057Z,11.88
2022-09-07T19:22:06.104Z,11.60
2022-09-07T19:24:33.253Z,13.70
2022-09-07T19:27:01.052Z,13.60
2022-09-07T19:29:28.669Z,14.70
2022-09-07T19:32:04.935Z,20.15
2022-09-07T19:34:36.785Z,16.63
2022-09-07T19:37:04.810Z,15.93
2022-09-07T19:39:31.594Z,13.30
2022-09-07T19:41:58.556Z,16.83
2022-09-07T19:44:25.371Z,14.00
2022-09-07T19:46:51.997Z,12.18
2022-09-07T19:49:18.602Z,13.57
2022-09-07T19:51:45.259Z,15.05
2022-09-07T19:54:13.599Z,12.73
2022-09-07T19:56:42.437Z,14.38
2022-09-07T19:59:09.506Z,17.40
2022-09-07T20:01:36.320Z,19.30
2022-09-07T20:04:06.183Z,14.43
2022-09-07T20:06:33.842Z,17.08
2022-09-07T20:09:01.414Z,16.10
2022-09-07T20:11:28.787Z,16.48
2022-09-07T20:13:57.035Z,13.52
2022-09-07T20:16:24.952Z,13.60
2022-09-07T20:18:51.892Z,14.60
2022-09-07T20:21:24.778Z,14.45
2022-09-07T20:23:51.731Z,18.55
2022-09-07T20:26:20.987Z,15.57
2022-09-07T20:29:10.671Z,16.70
2022-09-07T20:31:40.231Z,13.55
2022-09-07T20:34:06.838Z,16.77
2022-09-07T20:36:33.396Z,12.90
2022-09-07T20:39:00.001Z,16.08
2022-09-07T20:41:29.217Z,12.57
2022-09-07T20:43:57.022Z,26.25
2022-09-07T20:46:23.659Z,16.60
2022-09-07T20:48:50.180Z,14.98
2022-09-07T20:51:21.415Z,12.82
2022-09-07T20:53:49.102Z,18.80
2022-09-07T20:56:21.668Z,17.60
2022-09-07T20:58:53.326Z,15.23
2022-09-07T21:01:21.252Z,17.65
2022-09-07T21:03:51.140Z,17.08
2022-09-07T21:06:19.553Z,15.18
2022-09-07T21:08:47.280Z,14.05
2022-09-07T21:11:22.707Z,17.88
2022-09-07T21:13:55.906Z,16.02
2022-09-07T21:16:22.597Z,15.38
2022-09-07T21:18:53.919Z,18.55
2022-09-07T21:21:21.192Z,16.05
2022-09-07T21:23:48.518Z,17.98
2022-09-07T21:26:15.291Z,17.27
2022-09-07T21:28:41.839Z,16.67
2022-09-07T21:31:09.596Z,18.02
2022-09-07T21:33:37.644Z,14.88
2022-09-07T21:36:10.487Z,20.95
2022-09-07T21:38:39.739Z,20.15
2022-09-07T21:41:08.151Z,18.23
2022-09-07T21:43:35.371Z,17.00
2022-09-07T21:46:11.094Z,20.83
2022-09-07T21:48:38.108Z,18.13
2022-09-07T21:51:05.518Z,18.58
2022-09-07T21:53:32.129Z,21.02
2022-09-07T21:56:04.668Z,16.48
2022-09-07T21:58:32.453Z,17.70
2022-09-07T22:01:03.366Z,18.92
2022-09-07T22:03:29.983Z,20.95
2022-09-07T22:05:56.577Z,19.00
2022-09-07T22:08:23.096Z,16.20
2022-09-07T22:10:49.754Z,16.25
2022-09-07T22:13:16.329Z,18.08
2022-09-07T22:15:42.992Z,15.52
2022-09-07T22:18:12.584Z,16.08
2022-09-07T22:20:40.155Z,18.38
2022-09-07T22:23:06.757Z,16.48
2022-09-07T22:25:34.759Z,21.63
2022-09-07T22:28:01.459Z,15.10
2022-09-07T22:30:28.041Z,16.17
2022-09-07T22:32:54.846Z,14.32
2022-09-07T22:35:24.061Z,15.82
2022-09-07T22:37:50.599Z,14.65
2022-09-07T22:40:17.255Z,13.40
2022-09-07T22:42:43.833Z,14.13
2022-09-07T22:45:10.635Z,18.08
2022-09-07T22:47:37.190Z,14.15
2022-09-07T22:50:03.976Z,15.77
2022-09-07T22:52:30.581Z,18.08
2022-09-07T22:54:57.108Z,19.80
2022-09-07T22:57:23.734Z,19.15
2022-09-07T22:59:51.740Z,18.08
2022-09-07T23:02:18.338Z,19.77
2022-09-07T23:04:45.056Z,19.55
2022-09-07T23:07:11.756Z,22.77
2022-09-07T23:09:38.315Z,16.52
2022-09-07T23:12:04.955Z,20.35
2022-09-07T23:14:31.505Z,17.15
2022-09-07T23:16:58.095Z,20.08
2022-09-07T23:19:24.746Z,22.30
2022-09-07T23:21:51.585Z,19.42
2022-09-07T23:24:19.152Z,19.27
2022-09-07T23:26:46.961Z,17.02
2022-09-07T23:29:14.646Z,19.67
2022-09-07T23:31:42.135Z,18.80
2022-09-07T23:34:09.327Z,23.45
2022-09-07T23:36:37.130Z,16.85
2022-09-07T23:39:04.147Z,25.25
2022-09-07T23:41:30.860Z,18.92
2022-09-07T23:43:57.748Z,18.88
2022-09-07T23:46:24.532Z,14.90
2022-09-07T23:48:51.414Z,14.07
2022-09-07T23:51:23.053Z,19.77
2022-09-07T23:53:51.930Z,16.35
2022-09-07T23:56:18.516Z,20.35
2022-09-07T23:58:45.143Z,16.98
